• Join FlightAware (Why Join?)
  • Login
  • US Flag 
06:36AM EDT


 

Airport Tracker/Info


-or-


 

Live Flight TrackerFlight Track Log ✈ N588AC ✈ 01-May-2013 ✈ KBCB - KPHF

Flight Track Log - Related Links

Times and Time Zones

All times are in EDT time to prevent confusion due to time zone crossing. See the N588AC flight status page for this flight to view local times or setup timezone preferences in your user account.

Time Position Orientation Groundspeed Altitude Reporting Facility
EDT Latitude Longitude Course Direction KTS MPH feet Rate Location/Type
08:26AM 37.2372 -80.3189 84° East 196 226 7,900  Level Washington Center
08:27AM 37.2489 -80.2389 80° East 231 266 10,000 1,680 Climbing Washington Center
08:28AM 37.2486 -80.1397 90° East 259 298 11,300 1,920 Climbing Washington Center
08:29AM 37.2486 -80.0275 90° East 283 326 13,800 2,160 Climbing Washington Center
08:30AM 37.2483 -79.9206 90° East 294 338 15,700 1,740 Climbing Washington Center
08:31AM 37.2256 -79.8436 84° East  Level FlightAware Approximate
08:31AM 37.2503 -79.8083 89° East 299 344 17,300  Level Washington Center
08:32AM 37.2333 -79.7509 84° East  Level FlightAware Approximate
08:32AM 37.2519 -79.6961 89° East 312 359 18,500  Level Washington Center
08:33AM 37.2517 -79.5867 90° East 326 375 19,000 240 Climbing Washington Center
08:34AM 37.2514 -79.4614 90° East 343 395 19,000  Level Washington Center
08:35AM 37.2539 -79.3206 89° East 359 413 19,000  Level Washington Center
08:36AM 37.2619 -79.1931 85° East 364 419 19,000  Level Washington Center
08:37AM 37.2864 -79.0714 76° East 364 419 19,000  Level Washington Center
08:38AM 37.3106 -78.9603 75° East 364 419 19,000  Level Washington Center
08:39AM 37.3347 -78.8361 76° East 364 419 19,000  Level Washington Center
08:40AM 37.3608 -78.7117 75° East 359 413 19,000  Level Washington Center
08:41AM 37.3850 -78.5897 76° East 359 413 19,000  Level Washington Center
08:42AM 37.4114 -78.4522 76° East 359 413 19,000  Level Washington Center
08:43AM 37.4350 -78.3250 77° East 359 413 19,000  Level Washington Center
08:44AM 37.4608 -78.2031 75° East 359 413 19,000  Level Washington Center
08:45AM 37.4800 -78.0833 79° East 352 405 19,000  Level Washington Center
08:46AM 37.5008 -77.9767 76° East 352 405 19,000 -60 Level Washington Center
08:47AM 37.5219 -77.8594 77° East 352 405 18,900 -600 Descending Washington Center
08:48AM 37.5219 -77.7417 90° East 346 398 17,900 -1,020 Descending Washington Center
08:49AM 37.5178 -77.6211 92° East 341 392 16,900 -1,020 Descending Washington Center
08:50AM 37.5114 -77.5031 94° East 341 392 15,900 -780 Descending Washington Center
08:51AM 37.5050 -77.3825 94° East 341 392 15,400 -600 Descending Washington Center
08:52AM 37.5000 -77.3039 95° East 329 379 14,900 -840 Descending Washington Center
08:52AM 37.4983 -77.2722 94° East 328 377 14,600 -960 Descending Washington Center
08:53AM 37.4853 -77.1464 97° East 331 381 13,600 -780 Descending Washington Center
08:54AM 37.4761 -77.0519 97° East 313 360 13,100 -900 Descending Washington Center
08:55AM 37.4672 -76.9264 95° East 319 367 11,900 -1,080 Descending Washington Center
08:56AM 37.4578 -76.8111 96° East 325 374 11,000 -1,320 Descending Washington Center
08:57AM 37.3936 -76.7656 151° Southeast 296 341 9,300 -1,500 Descending Washington Center
08:58AM 37.3186 -76.7617 178° South 268 308 8,000 -1,080 Descending Washington Center
08:59AM 37.2414 -76.7633 181° South 259 298 7,200 -1,620 Descending Washington Center
09:00AM 37.1706 -76.7622 179° South 259 298 4,900 -2,160 Descending Washington Center
09:01AM 37.1083 -76.7300 158° South 245 282 2,900 -1,440 Descending Washington Center
09:02AM 37.0564 -76.7031 158° South 184 212 2,000 -480 Descending Washington Center
09:03AM 37.0547 -76.6458 92° East 156 180 2,000 -60 Level Washington Center
09:04AM 37.0739 -76.6044 60° Northeast 133 153 1,900 -120 Descending Washington Center